sensor_id;sensor_type;location;lat;lon;timestamp;P1;durP1;ratioP1;P2;durP2;ratioP2
67995;SDS011;54772;53.544;49.324;2023-06-14T00:01:48;4.47;;;2.58;;
67995;SDS011;54772;53.544;49.324;2023-06-14T00:04:35;4.43;;;1.83;;
67995;SDS011;54772;53.544;49.324;2023-06-14T00:07:33;3.10;;;2.17;;
67995;SDS011;54772;53.544;49.324;2023-06-14T00:10:21;5.10;;;1.98;;
67995;SDS011;54772;53.544;49.324;2023-06-14T00:13:08;5.18;;;2.42;;
67995;SDS011;54772;53.544;49.324;2023-06-14T00:15:55;3.45;;;2.20;;
67995;SDS011;54772;53.544;49.324;2023-06-14T00:18:42;5.85;;;1.92;;
67995;SDS011;54772;53.544;49.324;2023-06-14T00:21:29;2.85;;;2.03;;
67995;SDS011;54772;53.544;49.324;2023-06-14T00:24:16;5.30;;;2.58;;
67995;SDS011;54772;53.544;49.324;2023-06-14T00:27:03;3.05;;;2.15;;
67995;SDS011;54772;53.544;49.324;2023-06-14T00:29:50;2.97;;;1.90;;
67995;SDS011;54772;53.544;49.324;2023-06-14T00:32:39;5.50;;;2.03;;
67995;SDS011;54772;53.544;49.324;2023-06-14T00:35:28;4.47;;;2.28;;
67995;SDS011;54772;53.544;49.324;2023-06-14T00:38:15;3.90;;;1.92;;
67995;SDS011;54772;53.544;49.324;2023-06-14T00:41:02;4.28;;;2.28;;
67995;SDS011;54772;53.544;49.324;2023-06-14T00:43:48;3.22;;;1.90;;
67995;SDS011;54772;53.544;49.324;2023-06-14T00:46:36;4.55;;;2.45;;
67995;SDS011;54772;53.544;49.324;2023-06-14T00:49:23;3.87;;;2.20;;
67995;SDS011;54772;53.544;49.324;2023-06-14T00:52:09;3.05;;;2.05;;
67995;SDS011;54772;53.544;49.324;2023-06-14T00:54:58;4.30;;;2.42;;
67995;SDS011;54772;53.544;49.324;2023-06-14T00:57:48;5.78;;;2.92;;
67995;SDS011;54772;53.544;49.324;2023-06-14T01:00:35;4.80;;;2.28;;
67995;SDS011;54772;53.544;49.324;2023-06-14T01:06:23;3.28;;;2.42;;
67995;SDS011;54772;53.544;49.324;2023-06-14T01:12:10;5.00;;;2.40;;
67995;SDS011;54772;53.544;49.324;2023-06-14T01:15:19;3.83;;;2.62;;
67995;SDS011;54772;53.544;49.324;2023-06-14T01:18:07;4.68;;;2.35;;
67995;SDS011;54772;53.544;49.324;2023-06-14T01:21:02;7.15;;;2.50;;
67995;SDS011;54772;53.544;49.324;2023-06-14T01:23:51;4.55;;;2.47;;
67995;SDS011;54772;53.544;49.324;2023-06-14T01:26:38;5.10;;;2.45;;
67995;SDS011;54772;53.544;49.324;2023-06-14T01:29:30;5.97;;;3.33;;
67995;SDS011;54772;53.544;49.324;2023-06-14T01:32:18;6.20;;;2.90;;
67995;SDS011;54772;53.544;49.324;2023-06-14T01:35:05;7.85;;;2.60;;
67995;SDS011;54772;53.544;49.324;2023-06-14T01:37:52;5.35;;;2.95;;
67995;SDS011;54772;53.544;49.324;2023-06-14T01:40:40;5.65;;;2.67;;
67995;SDS011;54772;53.544;49.324;2023-06-14T01:43:28;10.35;;;2.75;;
67995;SDS011;54772;53.544;49.324;2023-06-14T01:46:16;5.32;;;2.60;;
67995;SDS011;54772;53.544;49.324;2023-06-14T01:49:02;7.57;;;2.80;;
67995;SDS011;54772;53.544;49.324;2023-06-14T01:51:49;10.80;;;2.90;;
67995;SDS011;54772;53.544;49.324;2023-06-14T01:54:36;5.18;;;2.97;;
67995;SDS011;54772;53.544;49.324;2023-06-14T01:57:27;7.45;;;2.78;;
67995;SDS011;54772;53.544;49.324;2023-06-14T02:00:14;5.35;;;2.50;;
67995;SDS011;54772;53.544;49.324;2023-06-14T02:03:03;8.90;;;2.90;;
67995;SDS011;54772;53.544;49.324;2023-06-14T02:05:49;10.75;;;2.95;;
67995;SDS011;54772;53.544;49.324;2023-06-14T02:08:36;6.68;;;2.72;;
67995;SDS011;54772;53.544;49.324;2023-06-14T02:11:23;9.25;;;3.50;;
67995;SDS011;54772;53.544;49.324;2023-06-14T02:14:11;7.30;;;2.92;;
67995;SDS011;54772;53.544;49.324;2023-06-14T02:20:43;6.68;;;2.78;;
67995;SDS011;54772;53.544;49.324;2023-06-14T02:23:52;4.28;;;2.80;;
67995;SDS011;54772;53.544;49.324;2023-06-14T02:26:39;4.60;;;2.53;;
67995;SDS011;54772;53.544;49.324;2023-06-14T02:29:31;4.35;;;2.62;;
67995;SDS011;54772;53.544;49.324;2023-06-14T02:32:21;8.77;;;2.58;;
67995;SDS011;54772;53.544;49.324;2023-06-14T02:35:30;4.82;;;2.35;;
67995;SDS011;54772;53.544;49.324;2023-06-14T02:38:17;4.47;;;2.50;;
67995;SDS011;54772;53.544;49.324;2023-06-14T02:44:28;5.80;;;2.97;;
67995;SDS011;54772;53.544;49.324;2023-06-14T02:47:40;5.90;;;2.37;;
67995;SDS011;54772;53.544;49.324;2023-06-14T02:53:37;8.60;;;3.03;;
67995;SDS011;54772;53.544;49.324;2023-06-14T02:59:33;5.30;;;2.72;;
67995;SDS011;54772;53.544;49.324;2023-06-14T03:02:21;7.50;;;3.00;;
67995;SDS011;54772;53.544;49.324;2023-06-14T03:05:11;6.15;;;2.78;;
67995;SDS011;54772;53.544;49.324;2023-06-14T03:08:07;6.50;;;3.00;;
67995;SDS011;54772;53.544;49.324;2023-06-14T03:15:15;6.03;;;2.90;;
67995;SDS011;54772;53.544;49.324;2023-06-14T03:18:33;4.72;;;2.62;;
67995;SDS011;54772;53.544;49.324;2023-06-14T03:21:21;3.95;;;2.58;;
67995;SDS011;54772;53.544;49.324;2023-06-14T03:32:00;5.87;;;2.60;;
67995;SDS011;54772;53.544;49.324;2023-06-14T03:36:01;6.70;;;3.12;;
67995;SDS011;54772;53.544;49.324;2023-06-14T03:38:51;7.22;;;3.22;;
67995;SDS011;54772;53.544;49.324;2023-06-14T03:41:38;11.30;;;3.22;;
67995;SDS011;54772;53.544;49.324;2023-06-14T03:51:17;7.55;;;3.80;;
67995;SDS011;54772;53.544;49.324;2023-06-14T04:09:10;10.32;;;3.70;;
67995;SDS011;54772;53.544;49.324;2023-06-14T04:12:04;8.10;;;3.72;;
67995;SDS011;54772;53.544;49.324;2023-06-14T04:14:51;11.68;;;4.22;;
67995;SDS011;54772;53.544;49.324;2023-06-14T04:17:38;8.40;;;3.42;;
67995;SDS011;54772;53.544;49.324;2023-06-14T04:33:04;6.03;;;2.90;;
67995;SDS011;54772;53.544;49.324;2023-06-14T04:44:13;5.87;;;2.90;;
67995;SDS011;54772;53.544;49.324;2023-06-14T05:23:19;6.43;;;3.60;;
67995;SDS011;54772;53.544;49.324;2023-06-14T05:45:59;6.47;;;2.95;;
67995;SDS011;54772;53.544;49.324;2023-06-14T06:16:33;7.43;;;3.37;;
67995;SDS011;54772;53.544;49.324;2023-06-14T06:34:57;6.32;;;3.40;;
67995;SDS011;54772;53.544;49.324;2023-06-14T06:38:07;8.25;;;3.75;;
67995;SDS011;54772;53.544;49.324;2023-06-14T06:44:43;8.65;;;4.65;;
67995;SDS011;54772;53.544;49.324;2023-06-14T06:51:01;10.48;;;4.47;;
67995;SDS011;54772;53.544;49.324;2023-06-14T06:56:37;10.93;;;4.75;;
67995;SDS011;54772;53.544;49.324;2023-06-14T07:06:01;10.25;;;4.72;;
67995;SDS011;54772;53.544;49.324;2023-06-14T07:08:48;8.68;;;4.35;;
67995;SDS011;54772;53.544;49.324;2023-06-14T07:11:36;11.35;;;4.90;;
67995;SDS011;54772;53.544;49.324;2023-06-14T07:14:59;7.72;;;3.85;;
67995;SDS011;54772;53.544;49.324;2023-06-14T07:17:47;4.97;;;3.33;;
67995;SDS011;54772;53.544;49.324;2023-06-14T07:20:36;7.25;;;3.28;;
67995;SDS011;54772;53.544;49.324;2023-06-14T07:27:34;5.45;;;2.80;;
67995;SDS011;54772;53.544;49.324;2023-06-14T07:34:34;7.20;;;3.47;;
67995;SDS011;54772;53.544;49.324;2023-06-14T07:40:32;5.03;;;3.28;;
67995;SDS011;54772;53.544;49.324;2023-06-14T07:43:19;7.35;;;4.10;;
67995;SDS011;54772;53.544;49.324;2023-06-14T07:46:09;5.28;;;2.95;;
67995;SDS011;54772;53.544;49.324;2023-06-14T07:52:02;5.03;;;2.80;;
67995;SDS011;54772;53.544;49.324;2023-06-14T08:04:51;4.32;;;2.62;;
67995;SDS011;54772;53.544;49.324;2023-06-14T08:07:38;5.50;;;2.55;;
67995;SDS011;54772;53.544;49.324;2023-06-14T08:13:57;5.78;;;2.62;;
67995;SDS011;54772;53.544;49.324;2023-06-14T08:16:48;5.90;;;2.72;;
67995;SDS011;54772;53.544;49.324;2023-06-14T08:19:35;4.68;;;2.58;;
67995;SDS011;54772;53.544;49.324;2023-06-14T08:27:08;5.05;;;3.17;;
67995;SDS011;54772;53.544;49.324;2023-06-14T08:30:15;4.68;;;2.53;;
67995;SDS011;54772;53.544;49.324;2023-06-14T08:33:20;4.50;;;2.28;;
67995;SDS011;54772;53.544;49.324;2023-06-14T08:42:38;4.68;;;2.90;;
67995;SDS011;54772;53.544;49.324;2023-06-14T08:49:33;3.92;;;2.62;;
67995;SDS011;54772;53.544;49.324;2023-06-14T08:52:32;5.70;;;2.78;;
67995;SDS011;54772;53.544;49.324;2023-06-14T09:05:06;4.30;;;2.65;;
67995;SDS011;54772;53.544;49.324;2023-06-14T09:08:18;4.57;;;3.00;;
67995;SDS011;54772;53.544;49.324;2023-06-14T09:11:08;4.78;;;2.83;;
67995;SDS011;54772;53.544;49.324;2023-06-14T09:14:23;2.92;;;2.40;;
67995;SDS011;54772;53.544;49.324;2023-06-14T09:17:13;4.43;;;2.75;;
67995;SDS011;54772;53.544;49.324;2023-06-14T09:20:02;5.32;;;2.65;;
67995;SDS011;54772;53.544;49.324;2023-06-14T09:22:54;4.65;;;2.67;;
67995;SDS011;54772;53.544;49.324;2023-06-14T09:25:45;4.62;;;3.05;;
67995;SDS011;54772;53.544;49.324;2023-06-14T09:28:33;7.28;;;3.10;;
67995;SDS011;54772;53.544;49.324;2023-06-14T09:31:20;7.32;;;3.10;;
67995;SDS011;54772;53.544;49.324;2023-06-14T09:34:09;5.60;;;3.10;;
67995;SDS011;54772;53.544;49.324;2023-06-14T09:43:29;4.72;;;2.45;;
67995;SDS011;54772;53.544;49.324;2023-06-14T09:46:19;3.87;;;2.80;;
67995;SDS011;54772;53.544;49.324;2023-06-14T09:49:08;5.37;;;2.40;;
67995;SDS011;54772;53.544;49.324;2023-06-14T09:51:55;8.80;;;3.08;;
67995;SDS011;54772;53.544;49.324;2023-06-14T09:54:50;6.35;;;2.90;;
67995;SDS011;54772;53.544;49.324;2023-06-14T09:57:58;5.10;;;2.60;;
67995;SDS011;54772;53.544;49.324;2023-06-14T10:04:40;4.20;;;2.30;;
67995;SDS011;54772;53.544;49.324;2023-06-14T10:07:38;3.85;;;2.42;;
67995;SDS011;54772;53.544;49.324;2023-06-14T10:10:33;3.80;;;2.53;;
67995;SDS011;54772;53.544;49.324;2023-06-14T10:13:23;2.97;;;2.28;;
67995;SDS011;54772;53.544;49.324;2023-06-14T10:16:17;3.95;;;2.30;;
67995;SDS011;54772;53.544;49.324;2023-06-14T10:23:37;4.43;;;2.47;;
67995;SDS011;54772;53.544;49.324;2023-06-14T10:26:27;3.47;;;2.28;;
67995;SDS011;54772;53.544;49.324;2023-06-14T10:40:10;10.75;;;3.10;;
67995;SDS011;54772;53.544;49.324;2023-06-14T10:46:40;3.75;;;2.42;;
67995;SDS011;54772;53.544;49.324;2023-06-14T10:50:05;4.05;;;2.60;;
67995;SDS011;54772;53.544;49.324;2023-06-14T10:52:53;6.18;;;2.90;;
67995;SDS011;54772;53.544;49.324;2023-06-14T11:06:26;4.75;;;3.08;;
67995;SDS011;54772;53.544;49.324;2023-06-14T11:10:02;5.47;;;2.60;;
67995;SDS011;54772;53.544;49.324;2023-06-14T11:13:52;6.97;;;2.92;;
67995;SDS011;54772;53.544;49.324;2023-06-14T11:16:38;6.95;;;2.35;;
67995;SDS011;54772;53.544;49.324;2023-06-14T11:23:16;7.75;;;3.00;;
67995;SDS011;54772;53.544;49.324;2023-06-14T11:26:03;7.50;;;3.33;;
67995;SDS011;54772;53.544;49.324;2023-06-14T11:28:50;3.92;;;2.15;;
67995;SDS011;54772;53.544;49.324;2023-06-14T11:32:10;3.70;;;2.28;;
67995;SDS011;54772;53.544;49.324;2023-06-14T11:34:58;5.45;;;2.53;;
67995;SDS011;54772;53.544;49.324;2023-06-14T11:37:45;2.85;;;2.25;;
67995;SDS011;54772;53.544;49.324;2023-06-14T11:40:32;3.62;;;2.00;;
67995;SDS011;54772;53.544;49.324;2023-06-14T11:46:25;4.65;;;2.37;;
67995;SDS011;54772;53.544;49.324;2023-06-14T11:49:13;8.35;;;2.78;;
67995;SDS011;54772;53.544;49.324;2023-06-14T11:51:59;5.15;;;2.75;;
67995;SDS011;54772;53.544;49.324;2023-06-14T11:54:47;7.75;;;2.80;;
67995;SDS011;54772;53.544;49.324;2023-06-14T11:57:34;8.73;;;3.08;;
67995;SDS011;54772;53.544;49.324;2023-06-14T12:00:25;5.68;;;3.37;;
67995;SDS011;54772;53.544;49.324;2023-06-14T12:03:12;6.95;;;3.10;;
67995;SDS011;54772;53.544;49.324;2023-06-14T12:08:49;6.60;;;3.20;;
67995;SDS011;54772;53.544;49.324;2023-06-14T12:11:38;6.80;;;3.90;;
67995;SDS011;54772;53.544;49.324;2023-06-14T12:14:29;7.00;;;3.95;;
67995;SDS011;54772;53.544;49.324;2023-06-14T12:17:16;7.68;;;4.15;;
67995;SDS011;54772;53.544;49.324;2023-06-14T12:20:11;8.23;;;3.55;;
67995;SDS011;54772;53.544;49.324;2023-06-14T12:23:02;9.00;;;3.70;;
67995;SDS011;54772;53.544;49.324;2023-06-14T12:25:50;8.75;;;3.37;;
